sensor_id;sensor_type;location;lat;lon;timestamp;P1;durP1;ratioP1;P2;durP2;ratioP2
47715;SDS011;33476;50.984;3.538;2022-10-19T00:01:47;9.02;;;1.17;;
47715;SDS011;33476;50.984;3.538;2022-10-19T00:04:13;9.45;;;1.23;;
47715;SDS011;33476;50.984;3.538;2022-10-19T00:06:38;5.63;;;1.20;;
47715;SDS011;33476;50.984;3.538;2022-10-19T00:09:08;9.27;;;1.13;;
47715;SDS011;33476;50.984;3.538;2022-10-19T00:11:36;9.27;;;1.25;;
47715;SDS011;33476;50.984;3.538;2022-10-19T00:14:03;6.18;;;1.45;;
47715;SDS011;33476;50.984;3.538;2022-10-19T00:16:30;8.25;;;1.23;;
47715;SDS011;33476;50.984;3.538;2022-10-19T00:18:57;8.93;;;1.17;;
47715;SDS011;33476;50.984;3.538;2022-10-19T00:21:25;9.00;;;1.75;;
47715;SDS011;33476;50.984;3.538;2022-10-19T00:23:51;8.40;;;1.30;;
47715;SDS011;33476;50.984;3.538;2022-10-19T00:26:16;9.45;;;1.30;;
47715;SDS011;33476;50.984;3.538;2022-10-19T00:28:42;9.70;;;1.13;;
47715;SDS011;33476;50.984;3.538;2022-10-19T00:31:12;6.80;;;1.08;;
47715;SDS011;33476;50.984;3.538;2022-10-19T00:33:40;6.35;;;1.30;;
47715;SDS011;33476;50.984;3.538;2022-10-19T00:36:13;8.23;;;1.42;;
47715;SDS011;33476;50.984;3.538;2022-10-19T00:38:44;9.15;;;1.48;;
47715;SDS011;33476;50.984;3.538;2022-10-19T00:41:10;7.68;;;1.27;;
47715;SDS011;33476;50.984;3.538;2022-10-19T00:46:16;8.20;;;1.40;;
47715;SDS011;33476;50.984;3.538;2022-10-19T00:48:42;9.38;;;1.10;;
47715;SDS011;33476;50.984;3.538;2022-10-19T00:51:07;7.30;;;1.30;;
47715;SDS011;33476;50.984;3.538;2022-10-19T00:53:32;3.75;;;1.10;;
47715;SDS011;33476;50.984;3.538;2022-10-19T00:56:01;8.70;;;1.20;;
47715;SDS011;33476;50.984;3.538;2022-10-19T00:58:31;4.85;;;1.08;;
47715;SDS011;33476;50.984;3.538;2022-10-19T01:00:58;8.07;;;1.40;;
47715;SDS011;33476;50.984;3.538;2022-10-19T01:03:27;9.02;;;1.35;;
47715;SDS011;33476;50.984;3.538;2022-10-19T01:05:52;10.82;;;1.25;;
47715;SDS011;33476;50.984;3.538;2022-10-19T01:08:18;5.45;;;1.27;;
47715;SDS011;33476;50.984;3.538;2022-10-19T01:10:50;10.02;;;1.38;;
47715;SDS011;33476;50.984;3.538;2022-10-19T01:16:21;5.40;;;0.90;;
47715;SDS011;33476;50.984;3.538;2022-10-19T01:19:38;9.25;;;1.05;;
47715;SDS011;33476;50.984;3.538;2022-10-19T01:21:56;11.30;;;1.35;;
47715;SDS011;33476;50.984;3.538;2022-10-19T01:27:20;5.85;;;1.42;;
47715;SDS011;33476;50.984;3.538;2022-10-19T01:30:38;5.72;;;1.30;;
47715;SDS011;33476;50.984;3.538;2022-10-19T01:32:55;9.50;;;1.40;;
47715;SDS011;33476;50.984;3.538;2022-10-19T01:43:23;6.25;;;1.02;;
47715;SDS011;33476;50.984;3.538;2022-10-19T01:46:17;9.88;;;1.30;;
47715;SDS011;33476;50.984;3.538;2022-10-19T01:48:50;11.43;;;1.02;;
47715;SDS011;33476;50.984;3.538;2022-10-19T01:51:19;7.85;;;1.85;;
47715;SDS011;33476;50.984;3.538;2022-10-19T01:53:52;8.38;;;1.70;;
47715;SDS011;33476;50.984;3.538;2022-10-19T01:56:24;5.07;;;1.17;;
47715;SDS011;33476;50.984;3.538;2022-10-19T01:58:53;7.18;;;1.00;;
47715;SDS011;33476;50.984;3.538;2022-10-19T02:01:20;6.78;;;1.30;;
47715;SDS011;33476;50.984;3.538;2022-10-19T02:03:49;7.68;;;1.40;;
47715;SDS011;33476;50.984;3.538;2022-10-19T02:06:16;8.55;;;1.30;;
47715;SDS011;33476;50.984;3.538;2022-10-19T02:08:43;11.38;;;1.13;;
47715;SDS011;33476;50.984;3.538;2022-10-19T02:11:12;6.07;;;1.55;;
47715;SDS011;33476;50.984;3.538;2022-10-19T02:13:38;10.82;;;1.35;;
47715;SDS011;33476;50.984;3.538;2022-10-19T02:16:06;9.38;;;1.30;;
47715;SDS011;33476;50.984;3.538;2022-10-19T02:18:39;7.40;;;1.10;;
47715;SDS011;33476;50.984;3.538;2022-10-19T02:23:34;6.88;;;1.23;;
47715;SDS011;33476;50.984;3.538;2022-10-19T02:26:00;7.07;;;1.05;;
47715;SDS011;33476;50.984;3.538;2022-10-19T02:28:26;7.22;;;1.45;;
47715;SDS011;33476;50.984;3.538;2022-10-19T02:30:53;11.32;;;1.75;;
47715;SDS011;33476;50.984;3.538;2022-10-19T02:33:19;6.88;;;0.82;;
47715;SDS011;33476;50.984;3.538;2022-10-19T02:35:45;5.50;;;1.38;;
47715;SDS011;33476;50.984;3.538;2022-10-19T02:38:13;8.15;;;1.08;;
47715;SDS011;33476;50.984;3.538;2022-10-19T02:40:42;10.18;;;1.52;;
47715;SDS011;33476;50.984;3.538;2022-10-19T02:43:15;9.38;;;1.20;;
47715;SDS011;33476;50.984;3.538;2022-10-19T02:46:08;6.55;;;1.33;;
47715;SDS011;33476;50.984;3.538;2022-10-19T02:48:48;8.55;;;1.23;;
47715;SDS011;33476;50.984;3.538;2022-10-19T02:51:34;13.88;;;1.75;;
47715;SDS011;33476;50.984;3.538;2022-10-19T02:54:02;5.85;;;1.15;;
47715;SDS011;33476;50.984;3.538;2022-10-19T02:56:28;9.88;;;0.98;;
47715;SDS011;33476;50.984;3.538;2022-10-19T02:58:53;8.00;;;1.35;;
47715;SDS011;33476;50.984;3.538;2022-10-19T03:01:19;10.15;;;1.30;;
47715;SDS011;33476;50.984;3.538;2022-10-19T03:03:45;12.55;;;1.50;;
47715;SDS011;33476;50.984;3.538;2022-10-19T03:06:10;10.18;;;1.70;;
47715;SDS011;33476;50.984;3.538;2022-10-19T03:08:36;11.30;;;1.60;;
47715;SDS011;33476;50.984;3.538;2022-10-19T03:11:01;9.10;;;1.50;;
47715;SDS011;33476;50.984;3.538;2022-10-19T03:13:27;9.15;;;1.52;;
47715;SDS011;33476;50.984;3.538;2022-10-19T03:15:52;13.40;;;1.90;;
47715;SDS011;33476;50.984;3.538;2022-10-19T03:18:17;10.20;;;1.40;;
47715;SDS011;33476;50.984;3.538;2022-10-19T03:20:43;8.25;;;1.30;;
47715;SDS011;33476;50.984;3.538;2022-10-19T03:23:08;6.78;;;1.40;;
47715;SDS011;33476;50.984;3.538;2022-10-19T03:25:33;10.70;;;1.77;;
47715;SDS011;33476;50.984;3.538;2022-10-19T03:27:59;8.63;;;1.38;;
47715;SDS011;33476;50.984;3.538;2022-10-19T03:30:24;10.38;;;1.17;;
47715;SDS011;33476;50.984;3.538;2022-10-19T03:33:01;14.32;;;1.92;;
47715;SDS011;33476;50.984;3.538;2022-10-19T03:35:26;8.20;;;1.20;;
47715;SDS011;33476;50.984;3.538;2022-10-19T03:37:52;12.50;;;1.40;;
47715;SDS011;33476;50.984;3.538;2022-10-19T03:40:17;9.05;;;1.80;;
47715;SDS011;33476;50.984;3.538;2022-10-19T03:42:42;10.38;;;1.80;;
47715;SDS011;33476;50.984;3.538;2022-10-19T03:45:08;8.43;;;0.98;;
47715;SDS011;33476;50.984;3.538;2022-10-19T03:47:33;13.43;;;1.70;;
47715;SDS011;33476;50.984;3.538;2022-10-19T03:49:59;9.43;;;1.52;;
47715;SDS011;33476;50.984;3.538;2022-10-19T03:52:24;3.33;;;0.98;;
47715;SDS011;33476;50.984;3.538;2022-10-19T03:54:49;6.82;;;1.13;;
47715;SDS011;33476;50.984;3.538;2022-10-19T03:57:15;10.02;;;1.00;;
47715;SDS011;33476;50.984;3.538;2022-10-19T03:59:40;7.60;;;1.50;;
47715;SDS011;33476;50.984;3.538;2022-10-19T04:02:05;6.57;;;1.13;;
47715;SDS011;33476;50.984;3.538;2022-10-19T04:04:31;7.35;;;1.50;;
47715;SDS011;33476;50.984;3.538;2022-10-19T04:06:56;11.50;;;1.38;;
47715;SDS011;33476;50.984;3.538;2022-10-19T04:09:22;7.97;;;1.45;;
47715;SDS011;33476;50.984;3.538;2022-10-19T04:11:48;7.40;;;1.10;;
47715;SDS011;33476;50.984;3.538;2022-10-19T04:14:15;9.40;;;1.85;;
47715;SDS011;33476;50.984;3.538;2022-10-19T04:16:41;13.93;;;1.55;;
47715;SDS011;33476;50.984;3.538;2022-10-19T04:19:07;8.55;;;1.60;;
47715;SDS011;33476;50.984;3.538;2022-10-19T04:21:37;6.65;;;1.23;;
47715;SDS011;33476;50.984;3.538;2022-10-19T04:24:14;7.85;;;1.02;;
47715;SDS011;33476;50.984;3.538;2022-10-19T04:26:42;10.00;;;1.38;;
47715;SDS011;33476;50.984;3.538;2022-10-19T04:29:09;15.75;;;1.83;;
47715;SDS011;33476;50.984;3.538;2022-10-19T04:31:36;19.48;;;1.77;;
47715;SDS011;33476;50.984;3.538;2022-10-19T04:34:02;6.03;;;1.30;;
47715;SDS011;33476;50.984;3.538;2022-10-19T04:36:27;7.55;;;1.25;;
47715;SDS011;33476;50.984;3.538;2022-10-19T04:38:53;10.73;;;1.70;;
47715;SDS011;33476;50.984;3.538;2022-10-19T04:41:19;10.95;;;1.63;;
47715;SDS011;33476;50.984;3.538;2022-10-19T04:43:45;5.28;;;1.58;;
47715;SDS011;33476;50.984;3.538;2022-10-19T04:46:15;13.57;;;2.00;;
47715;SDS011;33476;50.984;3.538;2022-10-19T04:48:42;9.77;;;2.00;;
47715;SDS011;33476;50.984;3.538;2022-10-19T04:51:09;4.97;;;1.35;;
47715;SDS011;33476;50.984;3.538;2022-10-19T04:53:35;10.30;;;1.70;;
47715;SDS011;33476;50.984;3.538;2022-10-19T04:56:09;6.30;;;1.42;;
47715;SDS011;33476;50.984;3.538;2022-10-19T04:58:37;8.07;;;1.38;;
47715;SDS011;33476;50.984;3.538;2022-10-19T05:01:06;8.25;;;1.38;;
47715;SDS011;33476;50.984;3.538;2022-10-19T05:03:33;8.00;;;1.25;;
47715;SDS011;33476;50.984;3.538;2022-10-19T05:05:58;10.65;;;1.67;;
47715;SDS011;33476;50.984;3.538;2022-10-19T05:08:23;11.02;;;1.85;;
47715;SDS011;33476;50.984;3.538;2022-10-19T05:10:49;11.60;;;1.75;;
47715;SDS011;33476;50.984;3.538;2022-10-19T05:13:14;9.27;;;1.52;;
47715;SDS011;33476;50.984;3.538;2022-10-19T05:15:39;6.40;;;1.20;;
47715;SDS011;33476;50.984;3.538;2022-10-19T05:18:04;10.82;;;2.03;;
47715;SDS011;33476;50.984;3.538;2022-10-19T05:20:30;10.52;;;1.52;;
47715;SDS011;33476;50.984;3.538;2022-10-19T05:22:55;9.93;;;1.52;;
47715;SDS011;33476;50.984;3.538;2022-10-19T05:25:20;13.07;;;1.52;;
47715;SDS011;33476;50.984;3.538;2022-10-19T05:27:49;9.45;;;2.17;;
47715;SDS011;33476;50.984;3.538;2022-10-19T05:30:15;11.90;;;1.88;;
47715;SDS011;33476;50.984;3.538;2022-10-19T05:32:41;8.43;;;1.85;;
47715;SDS011;33476;50.984;3.538;2022-10-19T05:35:06;12.68;;;1.75;;
47715;SDS011;33476;50.984;3.538;2022-10-19T05:37:32;7.10;;;1.55;;
47715;SDS011;33476;50.984;3.538;2022-10-19T05:39:57;8.20;;;1.92;;
47715;SDS011;33476;50.984;3.538;2022-10-19T05:42:22;10.35;;;1.67;;
47715;SDS011;33476;50.984;3.538;2022-10-19T05:44:48;8.88;;;1.58;;
47715;SDS011;33476;50.984;3.538;2022-10-19T05:47:13;9.30;;;1.98;;
47715;SDS011;33476;50.984;3.538;2022-10-19T05:49:38;9.40;;;1.50;;
47715;SDS011;33476;50.984;3.538;2022-10-19T05:52:04;9.70;;;2.13;;
47715;SDS011;33476;50.984;3.538;2022-10-19T05:54:29;9.00;;;1.83;;
47715;SDS011;33476;50.984;3.538;2022-10-19T05:56:54;17.15;;;2.15;;
47715;SDS011;33476;50.984;3.538;2022-10-19T05:59:20;13.05;;;2.38;;
47715;SDS011;33476;50.984;3.538;2022-10-19T06:01:46;8.43;;;1.70;;
47715;SDS011;33476;50.984;3.538;2022-10-19T06:04:12;8.25;;;1.88;;
47715;SDS011;33476;50.984;3.538;2022-10-19T06:06:39;11.18;;;1.85;;
47715;SDS011;33476;50.984;3.538;2022-10-19T06:09:05;11.90;;;1.70;;
47715;SDS011;33476;50.984;3.538;2022-10-19T06:11:32;6.93;;;2.00;;
47715;SDS011;33476;50.984;3.538;2022-10-19T06:13:59;10.82;;;2.17;;
47715;SDS011;33476;50.984;3.538;2022-10-19T06:16:26;6.93;;;1.95;;
47715;SDS011;33476;50.984;3.538;2022-10-19T06:18:53;11.38;;;2.03;;
47715;SDS011;33476;50.984;3.538;2022-10-19T06:21:21;10.45;;;2.40;;
47715;SDS011;33476;50.984;3.538;2022-10-19T06:23:52;11.07;;;2.13;;
47715;SDS011;33476;50.984;3.538;2022-10-19T06:28:45;8.82;;;1.88;;
47715;SDS011;33476;50.984;3.538;2022-10-19T06:31:12;10.27;;;2.35;;
47715;SDS011;33476;50.984;3.538;2022-10-19T06:33:38;8.65;;;2.22;;
47715;SDS011;33476;50.984;3.538;2022-10-19T06:38:31;7.05;;;1.83;;
47715;SDS011;33476;50.984;3.538;2022-10-19T06:40:57;12.85;;;2.70;;
47715;SDS011;33476;50.984;3.538;2022-10-19T06:43:23;10.73;;;2.30;;
47715;SDS011;33476;50.984;3.538;2022-10-19T06:45:48;11.43;;;2.40;;
47715;SDS011;33476;50.984;3.538;2022-10-19T06:48:14;12.95;;;2.83;;
47715;SDS011;33476;50.984;3.538;2022-10-19T06:50:39;9.77;;;2.08;;
47715;SDS011;33476;50.984;3.538;2022-10-19T06:53:04;8.48;;;2.53;;
47715;SDS011;33476;50.984;3.538;2022-10-19T06:55:30;7.72;;;2.58;;
47715;SDS011;33476;50.984;3.538;2022-10-19T06:57:56;11.60;;;2.75;;
47715;SDS011;33476;50.984;3.538;2022-10-19T07:00:22;11.50;;;2.28;;
47715;SDS011;33476;50.984;3.538;2022-10-19T07:02:47;13.45;;;2.45;;
47715;SDS011;33476;50.984;3.538;2022-10-19T07:05:13;17.90;;;3.33;;
47715;SDS011;33476;50.984;3.538;2022-10-19T07:07:38;8.07;;;2.42;;
47715;SDS011;33476;50.984;3.538;2022-10-19T07:10:04;8.50;;;2.13;;
47715;SDS011;33476;50.984;3.538;2022-10-19T07:12:29;13.43;;;2.75;;
47715;SDS011;33476;50.984;3.538;2022-10-19T07:14:55;10.23;;;2.15;;
47715;SDS011;33476;50.984;3.538;2022-10-19T07:17:20;10.32;;;2.33;;
47715;SDS011;33476;50.984;3.538;2022-10-19T07:19:45;11.35;;;2.60;;
47715;SDS011;33476;50.984;3.538;2022-10-19T07:22:11;10.43;;;2.20;;
47715;SDS011;33476;50.984;3.538;2022-10-19T07:24:36;8.40;;;2.50;;
47715;SDS011;33476;50.984;3.538;2022-10-19T07:27:02;9.82;;;2.50;;
47715;SDS011;33476;50.984;3.538;2022-10-19T07:29:27;11.30;;;2.70;;
47715;SDS011;33476;50.984;3.538;2022-10-19T07:31:53;10.60;;;2.47;;
47715;SDS011;33476;50.984;3.538;2022-10-19T07:34:18;6.60;;;2.40;;
47715;SDS011;33476;50.984;3.538;2022-10-19T07:36:44;10.63;;;2.58;;
47715;SDS011;33476;50.984;3.538;2022-10-19T07:39:12;9.95;;;2.70;;
47715;SDS011;33476;50.984;3.538;2022-10-19T07:41:38;10.07;;;2.35;;
47715;SDS011;33476;50.984;3.538;2022-10-19T07:44:04;10.20;;;3.05;;
47715;SDS011;33476;50.984;3.538;2022-10-19T07:46:30;7.00;;;2.30;;
47715;SDS011;33476;50.984;3.538;2022-10-19T07:49:01;10.55;;;2.55;;
47715;SDS011;33476;50.984;3.538;2022-10-19T07:51:28;7.28;;;2.70;;
47715;SDS011;33476;50.984;3.538;2022-10-19T07:53:54;12.18;;;2.80;;
47715;SDS011;33476;50.984;3.538;2022-10-19T07:56:20;7.43;;;2.42;;
47715;SDS011;33476;50.984;3.538;2022-10-19T07:58:52;12.32;;;2.95;;
47715;SDS011;33476;50.984;3.538;2022-10-19T08:01:20;9.75;;;2.70;;
47715;SDS011;33476;50.984;3.538;2022-10-19T08:03:47;11.27;;;2.95;;
47715;SDS011;33476;50.984;3.538;2022-10-19T08:06:14;11.65;;;2.95;;
47715;SDS011;33476;50.984;3.538;2022-10-19T08:08:42;10.35;;;3.17;;
47715;SDS011;33476;50.984;3.538;2022-10-19T08:11:23;11.85;;;3.33;;
47715;SDS011;33476;50.984;3.538;2022-10-19T08:13:50;10.10;;;3.30;;
47715;SDS011;33476;50.984;3.538;2022-10-19T08:16:27;12.15;;;3.22;;
47715;SDS011;33476;50.984;3.538;2022-10-19T08:19:12;8.80;;;3.33;;
47715;SDS011;33476;50.984;3.538;2022-10-19T08:21:41;12.32;;;3.35;;
47715;SDS011;33476;50.984;3.538;2022-10-19T08:24:08;8.52;;;2.92;;
47715;SDS011;33476;50.984;3.538;2022-10-19T08:26:35;9.68;;;3.22;;
47715;SDS011;33476;50.984;3.538;2022-10-19T08:29:06;13.73;;;3.80;;
47715;SDS011;33476;50.984;3.538;2022-10-19T08:31:34;12.40;;;3.47;;
47715;SDS011;33476;50.984;3.538;2022-10-19T08:34:00;12.27;;;4.00;;
47715;SDS011;33476;50.984;3.538;2022-10-19T08:36:26;18.95;;;4.20;;
47715;SDS011;33476;50.984;3.538;2022-10-19T08:38:55;11.30;;;3.30;;
47715;SDS011;33476;50.984;3.538;2022-10-19T08:44:01;13.40;;;3.30;;
47715;SDS011;33476;50.984;3.538;2022-10-19T08:49:20;15.70;;;3.33;;
47715;SDS011;33476;50.984;3.538;2022-10-19T08:51:50;12.30;;;3.60;;
47715;SDS011;33476;50.984;3.538;2022-10-19T08:54:20;7.88;;;3.03;;
47715;SDS011;33476;50.984;3.538;2022-10-19T08:57:04;11.90;;;3.40;;
47715;SDS011;33476;50.984;3.538;2022-10-19T09:05:31;12.85;;;3.67;;
47715;SDS011;33476;50.984;3.538;2022-10-19T09:08:04;7.32;;;2.75;;
47715;SDS011;33476;50.984;3.538;2022-10-19T09:10:33;10.13;;;2.92;;
47715;SDS011;33476;50.984;3.538;2022-10-19T09:13:02;14.23;;;3.30;;
47715;SDS011;33476;50.984;3.538;2022-10-19T09:15:37;14.63;;;3.80;;
47715;SDS011;33476;50.984;3.538;2022-10-19T09:18:04;12.65;;;3.75;;
47715;SDS011;33476;50.984;3.538;2022-10-19T09:20:35;7.53;;;2.80;;
47715;SDS011;33476;50.984;3.538;2022-10-19T09:23:11;10.68;;;3.08;;
47715;SDS011;33476;50.984;3.538;2022-10-19T09:25:49;6.35;;;2.78;;
47715;SDS011;33476;50.984;3.538;2022-10-19T09:31:32;10.48;;;3.30;;
47715;SDS011;33476;50.984;3.538;2022-10-19T09:36:47;10.88;;;2.90;;
47715;SDS011;33476;50.984;3.538;2022-10-19T09:39:16;6.22;;;2.35;;
47715;SDS011;33476;50.984;3.538;2022-10-19T09:41:45;13.38;;;2.88;;
47715;SDS011;33476;50.984;3.538;2022-10-19T09:44:15;9.23;;;3.38;;
47715;SDS011;33476;50.984;3.538;2022-10-19T09:46:46;10.13;;;3.20;;
47715;SDS011;33476;50.984;3.538;2022-10-19T09:49:36;12.27;;;3.63;;
47715;SDS011;33476;50.984;3.538;2022-10-19T09:52:20;10.82;;;2.92;;
47715;SDS011;33476;50.984;3.538;2022-10-19T09:55:18;9.73;;;2.80;;
47715;SDS011;33476;50.984;3.538;2022-10-19T09:57:56;9.38;;;3.10;;
47715;SDS011;33476;50.984;3.538;2022-10-19T10:00:29;14.43;;;2.67;;
47715;SDS011;33476;50.984;3.538;2022-10-19T10:02:58;13.82;;;3.15;;
47715;SDS011;33476;50.984;3.538;2022-10-19T10:05:57;8.88;;;2.90;;
47715;SDS011;33476;50.984;3.538;2022-10-19T10:08:16;6.05;;;2.55;;
47715;SDS011;33476;50.984;3.538;2022-10-19T10:10:46;11.38;;;2.90;;
47715;SDS011;33476;50.984;3.538;2022-10-19T10:13:20;8.88;;;3.28;;
47715;SDS011;33476;50.984;3.538;2022-10-19T10:15:50;7.82;;;2.50;;
47715;SDS011;33476;50.984;3.538;2022-10-19T10:18:20;10.10;;;3.08;;
47715;SDS011;33476;50.984;3.538;2022-10-19T10:24:00;10.25;;;2.60;;
47715;SDS011;33476;50.984;3.538;2022-10-19T10:26:30;6.10;;;2.85;;
47715;SDS011;33476;50.984;3.538;2022-10-19T10:28:56;7.93;;;2.65;;
47715;SDS011;33476;50.984;3.538;2022-10-19T10:31:22;12.68;;;2.60;;
47715;SDS011;33476;50.984;3.538;2022-10-19T10:33:57;11.27;;;2.85;;
47715;SDS011;33476;50.984;3.538;2022-10-19T10:36:28;6.80;;;2.50;;
47715;SDS011;33476;50.984;3.538;2022-10-19T10:39:15;11.32;;;2.70;;
47715;SDS011;33476;50.984;3.538;2022-10-19T10:41:41;8.30;;;2.78;;
47715;SDS011;33476;50.984;3.538;2022-10-19T10:44:42;9.35;;;2.38;;
47715;SDS011;33476;50.984;3.538;2022-10-19T10:47:02;9.52;;;2.97;;
47715;SDS011;33476;50.984;3.538;2022-10-19T10:49:35;6.90;;;3.13;;
47715;SDS011;33476;50.984;3.538;2022-10-19T10:52:05;9.52;;;3.08;;
47715;SDS011;33476;50.984;3.538;2022-10-19T10:54:37;19.77;;;3.63;;
47715;SDS011;33476;50.984;3.538;2022-10-19T10:57:04;8.32;;;2.72;;
47715;SDS011;33476;50.984;3.538;2022-10-19T11:05:09;11.02;;;3.38;;
47715;SDS011;33476;50.984;3.538;2022-10-19T11:07:50;10.10;;;3.25;;
47715;SDS011;33476;50.984;3.538;2022-10-19T11:10:30;7.97;;;3.05;;
47715;SDS011;33476;50.984;3.538;2022-10-19T11:13:04;8.95;;;3.10;;
47715;SDS011;33476;50.984;3.538;2022-10-19T11:18:42;7.93;;;3.25;;
47715;SDS011;33476;50.984;3.538;2022-10-19T11:21:12;9.75;;;2.95;;
47715;SDS011;33476;50.984;3.538;2022-10-19T11:23:46;10.88;;;2.90;;
47715;SDS011;33476;50.984;3.538;2022-10-19T11:31:53;12.95;;;3.17;;
47715;SDS011;33476;50.984;3.538;2022-10-19T11:36:56;11.68;;;3.35;;
47715;SDS011;33476;50.984;3.538;2022-10-19T11:39:36;12.45;;;3.22;;
47715;SDS011;33476;50.984;3.538;2022-10-19T11:44:59;9.60;;;3.35;;
47715;SDS011;33476;50.984;3.538;2022-10-19T11:51:07;7.38;;;3.13;;
47715;SDS011;33476;50.984;3.538;2022-10-19T11:56:12;12.63;;;3.90;;
47715;SDS011;33476;50.984;3.538;2022-10-19T12:12:41;8.52;;;2.80;;
47715;SDS011;33476;50.984;3.538;2022-10-19T12:15:15;10.15;;;3.75;;
47715;SDS011;33476;50.984;3.538;2022-10-19T12:17:47;9.60;;;4.28;;
47715;SDS011;33476;50.984;3.538;2022-10-19T12:20:34;9.75;;;4.13;;
47715;SDS011;33476;50.984;3.538;2022-10-19T12:23:24;11.25;;;3.22;;
47715;SDS011;33476;50.984;3.538;2022-10-19T12:25:55;10.15;;;3.33;;
47715;SDS011;33476;50.984;3.538;2022-10-19T12:28:35;9.52;;;3.25;;
47715;SDS011;33476;50.984;3.538;2022-10-19T12:31:04;13.70;;;3.80;;
47715;SDS011;33476;50.984;3.538;2022-10-19T12:39:12;8.30;;;3.13;;
47715;SDS011;33476;50.984;3.538;2022-10-19T12:42:58;12.52;;;3.63;;
47715;SDS011;33476;50.984;3.538;2022-10-19T12:47:32;11.85;;;3.08;;
47715;SDS011;33476;50.984;3.538;2022-10-19T12:49:57;10.93;;;3.03;;
47715;SDS011;33476;50.984;3.538;2022-10-19T12:52:40;8.00;;;3.17;;
47715;SDS011;33476;50.984;3.538;2022-10-19T12:55:33;16.75;;;4.15;;
47715;SDS011;33476;50.984;3.538;2022-10-19T12:58:02;9.82;;;3.55;;
47715;SDS011;33476;50.984;3.538;2022-10-19T13:00:31;10.00;;;3.97;;
47715;SDS011;33476;50.984;3.538;2022-10-19T13:03:01;8.17;;;3.37;;
47715;SDS011;33476;50.984;3.538;2022-10-19T13:05:37;12.63;;;3.65;;
47715;SDS011;33476;50.984;3.538;2022-10-19T13:08:03;9.30;;;3.85;;
47715;SDS011;33476;50.984;3.538;2022-10-19T13:10:30;9.02;;;2.95;;
47715;SDS011;33476;50.984;3.538;2022-10-19T13:12:57;12.77;;;3.03;;
47715;SDS011;33476;50.984;3.538;2022-10-19T13:21:05;10.63;;;3.17;;
47715;SDS011;33476;50.984;3.538;2022-10-19T13:31:23;11.27;;;3.45;;
47715;SDS011;33476;50.984;3.538;2022-10-19T13:33:53;12.25;;;4.03;;
47715;SDS011;33476;50.984;3.538;2022-10-19T13:36:19;10.77;;;3.63;;
47715;SDS011;33476;50.984;3.538;2022-10-19T13:41:18;13.57;;;3.85;;
47715;SDS011;33476;50.984;3.538;2022-10-19T14:00:28;8.82;;;3.40;;
47715;SDS011;33476;50.984;3.538;2022-10-19T14:03:17;9.00;;;3.50;;
47715;SDS011;33476;50.984;3.538;2022-10-19T14:11:27;6.88;;;2.78;;
47715;SDS011;33476;50.984;3.538;2022-10-19T14:16:43;13.00;;;3.85;;
47715;SDS011;33476;50.984;3.538;2022-10-19T14:19:22;9.57;;;2.95;;
47715;SDS011;33476;50.984;3.538;2022-10-19T14:21:51;10.13;;;3.85;;
47715;SDS011;33476;50.984;3.538;2022-10-19T14:24:41;9.75;;;3.63;;
47715;SDS011;33476;50.984;3.538;2022-10-19T14:27:06;11.23;;;2.95;;
47715;SDS011;33476;50.984;3.538;2022-10-19T14:29:34;10.30;;;4.15;;
47715;SDS011;33476;50.984;3.538;2022-10-19T14:32:07;8.57;;;3.20;;
47715;SDS011;33476;50.984;3.538;2022-10-19T14:34:37;11.43;;;4.00;;
47715;SDS011;33476;50.984;3.538;2022-10-19T14:37:11;8.25;;;3.60;;
47715;SDS011;33476;50.984;3.538;2022-10-19T14:39:40;8.93;;;3.30;;
47715;SDS011;33476;50.984;3.538;2022-10-19T14:42:08;12.77;;;3.78;;
47715;SDS011;33476;50.984;3.538;2022-10-19T14:44:36;10.20;;;3.40;;
47715;SDS011;33476;50.984;3.538;2022-10-19T14:49:46;10.82;;;3.50;;
47715;SDS011;33476;50.984;3.538;2022-10-19T14:52:13;11.40;;;3.30;;
47715;SDS011;33476;50.984;3.538;2022-10-19T14:54:44;9.52;;;3.58;;
47715;SDS011;33476;50.984;3.538;2022-10-19T14:57:16;11.85;;;3.85;;
47715;SDS011;33476;50.984;3.538;2022-10-19T14:59:49;13.05;;;3.78;;
47715;SDS011;33476;50.984;3.538;2022-10-19T15:02:23;9.80;;;3.45;;
47715;SDS011;33476;50.984;3.538;2022-10-19T15:04:56;8.38;;;3.22;;
47715;SDS011;33476;50.984;3.538;2022-10-19T15:10:02;7.40;;;3.38;;
47715;SDS011;33476;50.984;3.538;2022-10-19T15:12:37;10.63;;;3.55;;
47715;SDS011;33476;50.984;3.538;2022-10-19T15:15:09;13.13;;;3.53;;
47715;SDS011;33476;50.984;3.538;2022-10-19T15:17:50;10.13;;;3.08;;
47715;SDS011;33476;50.984;3.538;2022-10-19T15:20:27;6.50;;;3.10;;
47715;SDS011;33476;50.984;3.538;2022-10-19T15:22:55;11.23;;;3.30;;
47715;SDS011;33476;50.984;3.538;2022-10-19T15:27:52;12.20;;;3.63;;
47715;SDS011;33476;50.984;3.538;2022-10-19T15:32:46;8.70;;;3.05;;
47715;SDS011;33476;50.984;3.538;2022-10-19T15:37:58;14.23;;;3.38;;
47715;SDS011;33476;50.984;3.538;2022-10-19T15:40:33;16.90;;;3.63;;
47715;SDS011;33476;50.984;3.538;2022-10-19T15:43:03;13.88;;;3.42;;
47715;SDS011;33476;50.984;3.538;2022-10-19T15:48:50;10.55;;;3.83;;
47715;SDS011;33476;50.984;3.538;2022-10-19T15:53:59;9.27;;;3.33;;
47715;SDS011;33476;50.984;3.538;2022-10-19T15:56:27;8.25;;;3.35;;
47715;SDS011;33476;50.984;3.538;2022-10-19T15:58:55;6.55;;;2.85;;
47715;SDS011;33476;50.984;3.538;2022-10-19T16:01:26;15.27;;;3.67;;
47715;SDS011;33476;50.984;3.538;2022-10-19T16:03:54;8.73;;;2.97;;
47715;SDS011;33476;50.984;3.538;2022-10-19T16:06:21;12.90;;;3.35;;
47715;SDS011;33476;50.984;3.538;2022-10-19T16:08:48;7.13;;;2.90;;
47715;SDS011;33476;50.984;3.538;2022-10-19T16:11:15;10.35;;;3.28;;
47715;SDS011;33476;50.984;3.538;2022-10-19T16:13:42;8.43;;;2.97;;
47715;SDS011;33476;50.984;3.538;2022-10-19T16:16:10;13.02;;;3.08;;
47715;SDS011;33476;50.984;3.538;2022-10-19T16:18:42;8.05;;;3.42;;
47715;SDS011;33476;50.984;3.538;2022-10-19T16:21:07;10.52;;;2.85;;
47715;SDS011;33476;50.984;3.538;2022-10-19T16:23:33;14.15;;;3.28;;
47715;SDS011;33476;50.984;3.538;2022-10-19T16:26:00;8.68;;;2.92;;
47715;SDS011;33476;50.984;3.538;2022-10-19T16:28:25;7.35;;;2.97;;
47715;SDS011;33476;50.984;3.538;2022-10-19T16:30:52;9.10;;;3.90;;
47715;SDS011;33476;50.984;3.538;2022-10-19T16:33:18;11.38;;;4.30;;
47715;SDS011;33476;50.984;3.538;2022-10-19T16:35:44;11.70;;;4.18;;
47715;SDS011;33476;50.984;3.538;2022-10-19T16:38:09;12.82;;;3.55;;
47715;SDS011;33476;50.984;3.538;2022-10-19T16:40:35;12.07;;;3.72;;
47715;SDS011;33476;50.984;3.538;2022-10-19T16:43:00;9.00;;;3.40;;
47715;SDS011;33476;50.984;3.538;2022-10-19T16:45:26;10.27;;;3.30;;
47715;SDS011;33476;50.984;3.538;2022-10-19T16:47:52;11.57;;;3.78;;
47715;SDS011;33476;50.984;3.538;2022-10-19T16:50:17;10.38;;;3.78;;
47715;SDS011;33476;50.984;3.538;2022-10-19T16:52:43;11.15;;;3.42;;
47715;SDS011;33476;50.984;3.538;2022-10-19T16:55:08;9.43;;;3.20;;
47715;SDS011;33476;50.984;3.538;2022-10-19T16:57:33;10.25;;;3.55;;
47715;SDS011;33476;50.984;3.538;2022-10-19T16:59:59;12.15;;;3.80;;
47715;SDS011;33476;50.984;3.538;2022-10-19T17:02:24;12.55;;;3.80;;
47715;SDS011;33476;50.984;3.538;2022-10-19T17:04:50;9.60;;;3.70;;
47715;SDS011;33476;50.984;3.538;2022-10-19T17:07:15;7.90;;;4.00;;
47715;SDS011;33476;50.984;3.538;2022-10-19T17:09:41;11.98;;;4.43;;
47715;SDS011;33476;50.984;3.538;2022-10-19T17:12:07;12.65;;;4.57;;
47715;SDS011;33476;50.984;3.538;2022-10-19T17:14:33;12.65;;;4.80;;
47715;SDS011;33476;50.984;3.538;2022-10-19T17:16:59;13.95;;;4.20;;
47715;SDS011;33476;50.984;3.538;2022-10-19T17:19:24;10.93;;;4.68;;
47715;SDS011;33476;50.984;3.538;2022-10-19T17:21:50;11.75;;;5.07;;
47715;SDS011;33476;50.984;3.538;2022-10-19T17:24:18;9.88;;;5.00;;
47715;SDS011;33476;50.984;3.538;2022-10-19T17:26:43;8.57;;;4.70;;